createdAt,value
2018-09-02T00:02:09.528Z,6.50
2018-09-02T00:04:39.045Z,6.07
2018-09-02T00:07:07.827Z,7.03
2018-09-02T00:09:36.766Z,5.43
2018-09-02T00:12:06.091Z,6.70
2018-09-02T00:14:35.218Z,6.70
2018-09-02T00:17:04.585Z,9.93
2018-09-02T00:19:33.823Z,8.73
2018-09-02T00:22:03.639Z,8.23
2018-09-02T00:24:32.439Z,9.63
2018-09-02T00:27:01.208Z,9.10
2018-09-02T00:29:30.896Z,7.40
2018-09-02T00:31:59.670Z,9.30
2018-09-02T00:34:29.075Z,6.73
2018-09-02T00:36:57.816Z,7.13
2018-09-02T00:39:27.163Z,6.30
2018-09-02T00:41:55.945Z,6.40
2018-09-02T00:44:24.757Z,5.97
2018-09-02T00:46:53.756Z,7.10
2018-09-02T00:49:23.293Z,5.73
2018-09-02T00:51:52.426Z,6.37
2018-09-02T00:54:21.827Z,5.60
2018-09-02T00:56:51.298Z,6.07
2018-09-02T00:59:20.052Z,5.30
2018-09-02T01:01:48.879Z,5.97
2018-09-02T01:04:17.643Z,6.53
2018-09-02T01:06:47.720Z,6.53
2018-09-02T01:09:16.569Z,5.50
2018-09-02T01:11:45.924Z,6.13
2018-09-02T01:14:14.937Z,5.63
2018-09-02T01:16:44.447Z,6.10
2018-09-02T01:19:13.512Z,6.40
2018-09-02T01:21:44.027Z,5.90
2018-09-02T01:24:13.004Z,6.97
2018-09-02T01:26:41.773Z,6.67
2018-09-02T01:29:11.624Z,6.87
2018-09-02T01:31:40.866Z,6.23
2018-09-02T01:34:10.158Z,6.57
2018-09-02T01:36:38.915Z,5.17
2018-09-02T01:39:08.766Z,5.70
2018-09-02T01:41:37.528Z,5.60
2018-09-02T01:44:06.780Z,5.77
2018-09-02T01:46:36.067Z,5.00
2018-09-02T01:49:05.821Z,5.00
2018-09-02T01:51:36.351Z,5.00
2018-09-02T01:54:06.304Z,5.80
2018-09-02T01:56:36.299Z,5.80
2018-09-02T01:59:05.639Z,5.60
2018-09-02T02:01:35.231Z,5.43
2018-09-02T02:04:04.672Z,5.47
2018-09-02T02:06:35.127Z,5.40
2018-09-02T02:09:04.704Z,6.53
2018-09-02T02:11:33.649Z,7.67
2018-09-02T02:14:02.545Z,6.13
2018-09-02T02:16:31.308Z,7.00
2018-09-02T02:19:00.177Z,7.90
2018-09-02T02:21:29.697Z,6.03
2018-09-02T02:23:58.576Z,6.93
2018-09-02T02:26:27.397Z,6.50
2018-09-02T02:28:56.243Z,6.37
2018-09-02T02:31:26.209Z,6.57
2018-09-02T02:33:55.607Z,7.07
2018-09-02T02:36:24.406Z,6.70
2018-09-02T02:38:54.379Z,6.10
2018-09-02T02:41:23.568Z,5.20
2018-09-02T02:43:52.351Z,5.43
2018-09-02T02:46:21.210Z,5.70
2018-09-02T02:48:50.632Z,5.53
2018-09-02T02:51:19.971Z,5.67
2018-09-02T02:53:48.728Z,6.00
2018-09-02T02:56:17.965Z,5.83
2018-09-02T02:58:47.344Z,5.43
2018-09-02T03:01:16.073Z,5.00
2018-09-02T03:03:45.159Z,5.40
2018-09-02T03:06:14.864Z,5.97
2018-09-02T03:08:43.748Z,4.93
2018-09-02T03:11:12.637Z,5.70
2018-09-02T03:13:41.532Z,5.60
2018-09-02T03:16:10.781Z,5.80
2018-09-02T03:18:40.114Z,5.30
2018-09-02T03:21:09.434Z,5.23
2018-09-02T03:23:38.299Z,5.03
2018-09-02T03:26:07.970Z,5.70
2018-09-02T03:28:37.307Z,6.50
2018-09-02T03:31:07.341Z,8.23
2018-09-02T03:33:37.562Z,6.93
2018-09-02T03:36:07.363Z,6.27
2018-09-02T03:38:37.151Z,5.80
2018-09-02T03:41:07.276Z,6.73
2018-09-02T03:43:36.579Z,5.73
2018-09-02T03:46:05.978Z,6.47
2018-09-02T03:48:36.415Z,6.07
2018-09-02T03:51:06.413Z,7.77
2018-09-02T03:53:35.703Z,6.63
2018-09-02T03:56:05.277Z,7.07
2018-09-02T03:58:35.317Z,6.67
2018-09-02T04:01:04.596Z,6.77
2018-09-02T04:03:33.980Z,5.60
2018-09-02T04:06:02.813Z,5.73
2018-09-02T04:08:32.636Z,6.10
2018-09-02T04:11:01.439Z,5.80
2018-09-02T04:13:30.243Z,6.37
2018-09-02T04:15:59.049Z,4.67
2018-09-02T04:18:27.807Z,6.40
2018-09-02T04:20:57.082Z,4.90
2018-09-02T04:23:25.853Z,6.87
2018-09-02T04:25:54.663Z,5.10
2018-09-02T04:28:23.481Z,5.90
2018-09-02T04:30:53.183Z,5.10
2018-09-02T04:33:22.470Z,5.60
2018-09-02T04:35:51.297Z,5.93
2018-09-02T04:38:21.021Z,8.20
2018-09-02T04:40:50.685Z,6.53
2018-09-02T04:43:19.433Z,6.80
2018-09-02T04:45:48.167Z,6.47
2018-09-02T04:48:17.777Z,6.60
2018-09-02T04:50:47.171Z,5.97
2018-09-02T04:53:16.579Z,6.80
2018-09-02T04:55:46.067Z,5.43
2018-09-02T04:58:15.440Z,5.83
2018-09-02T05:00:44.323Z,6.60
2018-09-02T05:03:13.281Z,5.40
2018-09-02T05:05:42.188Z,6.13
2018-09-02T05:08:11.572Z,5.53
2018-09-02T05:10:40.322Z,5.57
2018-09-02T05:13:09.166Z,6.20
2018-09-02T05:15:38.018Z,6.57
2018-09-02T05:18:07.185Z,6.90
2018-09-02T05:20:37.267Z,6.70
2018-09-02T05:23:06.519Z,7.00
2018-09-02T05:25:35.914Z,6.70
2018-09-02T05:28:05.769Z,7.10
2018-09-02T05:30:35.837Z,7.67
2018-09-02T05:33:05.707Z,7.10
2018-09-02T05:35:34.775Z,7.23
2018-09-02T05:38:04.481Z,7.10
2018-09-02T05:40:34.491Z,7.27
2018-09-02T05:43:04.423Z,6.50
2018-09-02T05:45:34.893Z,6.30
2018-09-02T05:48:04.864Z,6.73
2018-09-02T05:50:34.876Z,7.43
2018-09-02T05:53:03.893Z,5.83
2018-09-02T05:55:34.226Z,7.60
2018-09-02T05:58:03.932Z,6.13
2018-09-02T06:00:32.771Z,6.53
2018-09-02T06:03:01.998Z,7.70
2018-09-02T06:05:30.911Z,6.67
2018-09-02T06:08:00.957Z,7.00
2018-09-02T06:10:29.817Z,6.63
2018-09-02T06:12:58.691Z,7.00
2018-09-02T06:15:27.503Z,6.90
2018-09-02T06:17:56.340Z,6.97
2018-09-02T06:20:25.597Z,6.53
2018-09-02T06:22:54.478Z,6.60
2018-09-02T06:25:23.291Z,7.10
2018-09-02T06:27:52.113Z,6.83
2018-09-02T06:30:21.464Z,6.70
2018-09-02T06:32:50.351Z,7.20
2018-09-02T06:35:20.156Z,6.50
2018-09-02T06:37:48.946Z,6.70
2018-09-02T06:40:18.352Z,6.63
2018-09-02T06:42:47.225Z,6.93
2018-09-02T06:45:16.010Z,6.83
2018-09-02T06:47:45.855Z,6.90
2018-09-02T06:50:15.308Z,7.20
2018-09-02T06:52:44.272Z,6.13
2018-09-02T06:55:13.716Z,6.87
2018-09-02T06:57:57.799Z,6.47
2018-09-02T07:00:26.603Z,6.43
2018-09-02T07:02:55.631Z,6.73
2018-09-02T07:05:24.462Z,6.37
2018-09-02T07:07:53.726Z,6.63
2018-09-02T07:10:22.528Z,6.70
2018-09-02T07:12:52.861Z,5.80
2018-09-02T07:15:21.618Z,6.20
2018-09-02T07:17:50.514Z,6.17
2018-09-02T07:20:19.433Z,6.03
2018-09-02T07:22:48.316Z,6.10
2018-09-02T07:25:17.256Z,6.67
2018-09-02T07:27:46.325Z,6.53
2018-09-02T07:30:16.253Z,6.07
2018-09-02T07:32:45.428Z,6.23
2018-09-02T07:35:15.375Z,6.33
2018-09-02T07:37:44.387Z,5.73
2018-09-02T07:40:13.999Z,6.33
2018-09-02T07:42:43.152Z,6.00
2018-09-02T07:45:13.028Z,5.87
2018-09-02T07:47:43.413Z,5.83
2018-09-02T07:50:13.083Z,5.67
2018-09-02T07:52:41.843Z,5.93
2018-09-02T07:55:11.100Z,5.30
2018-09-02T07:57:40.848Z,5.13
2018-09-02T08:00:10.842Z,5.40
2018-09-02T08:02:40.056Z,5.00
2018-09-02T08:05:09.107Z,5.80
2018-09-02T08:07:38.701Z,4.63
2018-09-02T08:10:09.023Z,4.90
2018-09-02T08:12:37.979Z,4.97
2018-09-02T08:15:07.447Z,5.27
2018-09-02T08:17:36.678Z,5.37
2018-09-02T08:20:06.779Z,5.00
2018-09-02T08:22:37.138Z,4.73
2018-09-02T08:25:06.553Z,5.17
2018-09-02T08:27:35.827Z,4.17
2018-09-02T08:30:05.509Z,4.47
2018-09-02T08:32:34.780Z,4.10
2018-09-02T08:35:04.802Z,4.37
2018-09-02T08:37:33.826Z,4.10
2018-09-02T08:40:03.116Z,4.50
2018-09-02T08:42:31.911Z,4.13
2018-09-02T08:45:00.995Z,4.17
2018-09-02T08:47:29.776Z,4.53
2018-09-02T08:49:59.119Z,3.63
2018-09-02T08:52:27.883Z,4.43
2018-09-02T08:54:57.280Z,4.10
2018-09-02T08:57:26.632Z,4.17
2018-09-02T08:59:55.487Z,3.87
2018-09-02T09:02:24.316Z,4.83
2018-09-02T09:04:53.124Z,3.80
2018-09-02T09:07:22.601Z,4.73
2018-09-02T09:09:51.452Z,4.27
2018-09-02T09:12:20.231Z,5.07
2018-09-02T09:14:49.008Z,3.93
2018-09-02T09:17:17.845Z,4.50
2018-09-02T09:19:46.881Z,3.67
2018-09-02T09:22:15.861Z,5.00
2018-09-02T09:24:45.408Z,4.10
2018-09-02T09:27:14.536Z,3.87
2018-09-02T09:29:43.796Z,3.97
2018-09-02T09:32:12.935Z,4.17
2018-09-02T09:34:42.457Z,3.30
2018-09-02T09:37:11.352Z,3.87
2018-09-02T09:39:40.934Z,3.10
2018-09-02T09:42:09.717Z,3.30
2018-09-02T09:44:38.478Z,3.30
2018-09-02T09:47:07.595Z,3.23
2018-09-02T09:49:37.521Z,3.10
2018-09-02T09:52:07.088Z,2.90
2018-09-02T09:54:37.089Z,2.80
2018-09-02T09:57:06.630Z,2.83
2018-09-02T09:59:35.771Z,2.97
2018-09-02T10:02:04.838Z,2.70
2018-09-02T10:04:33.784Z,2.93
2018-09-02T10:07:03.182Z,2.70
2018-09-02T10:09:31.999Z,2.80
2018-09-02T10:12:00.798Z,2.03
2018-09-02T10:14:29.646Z,2.70
2018-09-02T10:16:58.637Z,2.60
2018-09-02T10:19:27.521Z,3.00
2018-09-02T10:21:56.389Z,2.50
2018-09-02T10:24:25.144Z,2.97
2018-09-02T10:26:53.936Z,2.67
2018-09-02T10:29:22.739Z,3.30
2018-09-02T10:31:52.394Z,2.27
2018-09-02T10:34:21.948Z,2.83
2018-09-02T10:36:50.806Z,3.07
2018-09-02T10:39:20.195Z,3.00
2018-09-02T10:41:49.054Z,3.00
2018-09-02T10:44:17.816Z,3.27
2018-09-02T10:46:46.796Z,2.50
2018-09-02T10:49:16.443Z,3.30
2018-09-02T10:51:46.767Z,3.00
2018-09-02T10:54:16.853Z,3.43
2018-09-02T10:56:46.451Z,2.63
2018-09-02T10:59:15.843Z,3.07
2018-09-02T11:01:44.906Z,2.73
2018-09-02T11:04:14.011Z,3.03
2018-09-02T11:06:43.510Z,3.00
2018-09-02T11:09:14.572Z,4.30
2018-09-02T11:11:43.426Z,2.97
2018-09-02T11:14:12.241Z,3.00
2018-09-02T11:16:41.017Z,3.00
2018-09-02T11:19:09.907Z,3.37
2018-09-02T11:21:38.747Z,2.87
2018-09-02T11:24:07.614Z,3.03
2018-09-02T11:26:37.039Z,3.00
2018-09-02T11:29:06.391Z,3.20
2018-09-02T11:31:36.101Z,3.00
2018-09-02T11:34:06.050Z,2.93
2018-09-02T11:36:35.113Z,3.07
2018-09-02T11:39:05.774Z,2.90
2018-09-02T11:41:34.740Z,2.90
2018-09-02T11:44:04.139Z,2.97
2018-09-02T11:46:33.032Z,3.00
2018-09-02T11:49:02.851Z,3.37
2018-09-02T11:51:32.186Z,2.80
2018-09-02T11:54:01.485Z,2.80
2018-09-02T11:56:30.248Z,3.30
2018-09-02T11:59:00.094Z,2.80
2018-09-02T12:01:28.988Z,3.13
2018-09-02T12:03:57.883Z,3.00
2018-09-02T12:06:27.807Z,3.20
2018-09-02T12:08:56.692Z,3.20
2018-09-02T12:11:25.495Z,3.87
2018-09-02T12:13:54.337Z,3.00
2018-09-02T12:16:23.119Z,3.27
2018-09-02T12:18:52.079Z,3.00
2018-09-02T12:21:20.924Z,3.40
2018-09-02T12:23:49.698Z,3.33
2018-09-02T12:26:18.464Z,3.67
2018-09-02T12:28:47.421Z,2.87
2018-09-02T12:31:18.091Z,3.40
2018-09-02T12:33:50.999Z,3.27
2018-09-02T12:36:19.983Z,3.43
2018-09-02T12:38:49.320Z,2.73
2018-09-02T12:41:18.742Z,3.53
2018-09-02T12:43:47.503Z,3.17
2018-09-02T12:46:17.536Z,3.93
2018-09-02T12:48:46.989Z,2.73
2018-09-02T12:51:16.997Z,3.53
2018-09-02T12:53:45.884Z,2.90
2018-09-02T12:56:15.801Z,3.37
2018-09-02T12:58:45.109Z,2.93
2018-09-02T13:01:14.219Z,3.60
2018-09-02T13:03:57.417Z,2.90
2018-09-02T13:06:26.865Z,3.20
2018-09-02T13:08:55.702Z,2.80
2018-09-02T13:11:24.491Z,3.10
2018-09-02T13:13:54.260Z,3.40
2018-09-02T13:16:23.055Z,2.93
2018-09-02T13:18:52.846Z,2.90
2018-09-02T13:21:21.709Z,3.20
2018-09-02T13:23:50.922Z,3.30
2018-09-02T13:26:19.740Z,2.87
2018-09-02T13:28:48.521Z,3.00
2018-09-02T13:31:17.967Z,2.80
2018-09-02T13:33:47.516Z,4.23
2018-09-02T13:36:16.533Z,2.70
2018-09-02T13:38:46.338Z,3.80
2018-09-02T13:41:15.397Z,3.20
2018-09-02T13:43:44.873Z,4.10
2018-09-02T13:46:15.076Z,3.03
2018-09-02T13:48:44.596Z,3.57
2018-09-02T13:51:14.433Z,3.50
2018-09-02T13:53:43.351Z,4.23
2018-09-02T13:56:12.713Z,3.10
2018-09-02T13:58:42.486Z,3.30
2018-09-02T14:01:11.512Z,3.10
2018-09-02T14:03:41.537Z,4.10
2018-09-02T14:06:11.465Z,3.20
2018-09-02T14:08:41.126Z,3.17
2018-09-02T14:11:10.742Z,4.03
2018-09-02T14:13:39.581Z,2.90
2018-09-02T14:16:08.465Z,3.50
2018-09-02T14:18:37.347Z,3.03
2018-09-02T14:21:06.964Z,3.67
2018-09-02T14:23:36.358Z,2.53
2018-09-02T14:26:06.342Z,3.13
2018-09-02T14:28:35.549Z,3.10
2018-09-02T14:31:05.714Z,3.13
2018-09-02T14:33:35.657Z,2.90
2018-09-02T14:36:04.956Z,3.00
2018-09-02T14:38:34.667Z,2.80
2018-09-02T14:41:03.907Z,4.50
2018-09-02T14:43:32.924Z,3.10
2018-09-02T14:46:02.351Z,4.70
2018-09-02T14:48:31.807Z,2.80
2018-09-02T14:51:01.236Z,3.33
2018-09-02T14:53:30.272Z,3.40
2018-09-02T14:55:59.780Z,3.57
2018-09-02T14:58:29.305Z,3.53
2018-09-02T15:00:58.294Z,3.47
2018-09-02T15:03:27.175Z,3.90
2018-09-02T15:05:56.049Z,3.27
2018-09-02T15:08:25.410Z,3.30
2018-09-02T15:10:54.837Z,3.23
2018-09-02T15:13:23.881Z,3.70
2018-09-02T15:15:53.332Z,3.33
2018-09-02T15:18:22.401Z,3.90
2018-09-02T15:20:51.300Z,3.50
2018-09-02T15:23:20.217Z,3.53
2018-09-02T15:25:49.151Z,3.20
2018-09-02T15:28:18.144Z,3.67
2018-09-02T15:30:47.755Z,3.37
2018-09-02T15:33:17.876Z,3.10
2018-09-02T15:35:47.264Z,3.10
2018-09-02T15:38:17.049Z,2.87
2018-09-02T15:40:46.398Z,3.40
2018-09-02T15:43:15.924Z,3.20
2018-09-02T15:45:45.038Z,4.03
2018-09-02T15:48:14.767Z,4.17
2018-09-02T15:50:44.333Z,3.83
2018-09-02T15:53:13.173Z,3.97
2018-09-02T15:55:42.633Z,3.80
2018-09-02T15:58:13.139Z,4.00
2018-09-02T16:00:42.171Z,3.90
2018-09-02T16:03:11.545Z,4.07
2018-09-02T16:05:40.439Z,3.80
2018-09-02T16:08:10.291Z,3.80
2018-09-02T16:10:39.737Z,3.77
2018-09-02T16:13:08.936Z,3.50
2018-09-02T16:15:37.807Z,4.10
2018-09-02T16:18:07.590Z,3.67
2018-09-02T16:20:36.785Z,4.30
2018-09-02T16:23:07.195Z,7.50
2018-09-02T16:25:36.291Z,7.77
2018-09-02T16:28:05.532Z,3.90
2018-09-02T16:30:35.135Z,12.53
2018-09-02T16:33:04.833Z,12.00
2018-09-02T16:35:34.855Z,6.57
2018-09-02T16:38:04.519Z,4.73
2018-09-02T16:40:33.997Z,4.73
2018-09-02T16:43:03.031Z,3.47
2018-09-02T16:45:31.894Z,4.10
2018-09-02T16:48:01.537Z,3.73
2018-09-02T16:50:30.863Z,5.37
2018-09-02T16:52:59.721Z,3.63
2018-09-02T16:55:29.154Z,4.30
2018-09-02T16:57:58.961Z,3.80
2018-09-02T17:00:27.883Z,4.37
2018-09-02T17:02:56.673Z,3.97
2018-09-02T17:05:25.730Z,5.40
2018-09-02T17:07:55.380Z,3.70
2018-09-02T17:10:24.760Z,4.60
2018-09-02T17:12:53.649Z,7.97
2018-09-02T17:15:22.466Z,7.07
2018-09-02T17:17:51.392Z,4.77
2018-09-02T17:20:24.944Z,5.20
2018-09-02T17:22:58.161Z,3.67
2018-09-02T17:25:27.088Z,4.50
2018-09-02T17:27:56.368Z,4.03
2018-09-02T17:30:26.109Z,4.80
2018-09-02T17:32:54.986Z,4.17
2018-09-02T17:35:24.662Z,5.43
2018-09-02T17:37:53.944Z,3.90
2018-09-02T17:40:22.723Z,4.00
2018-09-02T17:42:51.496Z,4.60
2018-09-02T17:45:20.695Z,4.43
2018-09-02T17:47:50.209Z,4.00
2018-09-02T17:50:19.573Z,4.70
2018-09-02T17:52:48.499Z,3.67
2018-09-02T17:55:18.186Z,4.43
2018-09-02T17:57:47.684Z,4.37
2018-09-02T18:00:20.160Z,4.43
2018-09-02T18:02:49.029Z,3.97
2018-09-02T18:05:18.012Z,4.40
2018-09-02T18:07:47.827Z,4.57
2018-09-02T18:10:17.577Z,4.70
2018-09-02T18:12:47.317Z,4.50
2018-09-02T18:15:16.285Z,4.63
2018-09-02T18:17:45.341Z,4.87
2018-09-02T18:20:14.307Z,4.23
2018-09-02T18:22:43.835Z,5.00
2018-09-02T18:25:13.477Z,4.80
2018-09-02T18:27:45.019Z,5.13
2018-09-02T18:30:14.780Z,4.90
2018-09-02T18:32:43.584Z,4.87
2018-09-02T18:35:13.055Z,4.50
2018-09-02T18:37:42.727Z,4.33
2018-09-02T18:40:11.588Z,4.20
2018-09-02T18:42:40.339Z,4.93
2018-09-02T18:45:09.522Z,4.47
2018-09-02T18:48:10.377Z,5.43
2018-09-02T18:50:40.068Z,4.67
2018-09-02T18:53:08.853Z,4.23
2018-09-02T18:55:38.247Z,4.27
2018-09-02T18:58:07.666Z,3.73
2018-09-02T19:00:37.113Z,4.33
2018-09-02T19:03:07.264Z,4.37
2018-09-02T19:05:36.428Z,4.43
2018-09-02T19:08:06.965Z,4.07
2018-09-02T19:10:36.119Z,5.37
2018-09-02T19:13:05.479Z,4.57
2018-09-02T19:15:34.995Z,4.40
2018-09-02T19:18:04.069Z,4.07
2018-09-02T19:20:33.125Z,5.27
2018-09-02T19:23:01.914Z,4.47
2018-09-02T19:25:30.805Z,5.80
2018-09-02T19:27:59.597Z,4.33
2018-09-02T19:30:28.984Z,5.63
2018-09-02T19:32:58.818Z,4.33
2018-09-02T19:35:28.414Z,5.27
2018-09-02T19:37:57.685Z,4.80
2018-09-02T19:40:26.527Z,5.33
2018-09-02T19:42:55.319Z,4.90
2018-09-02T19:45:24.187Z,5.10
2018-09-02T19:47:53.696Z,4.60
2018-09-02T19:50:23.277Z,5.70
2018-09-02T19:52:52.086Z,4.70
2018-09-02T19:55:21.573Z,4.93
2018-09-02T19:57:51.005Z,4.83
2018-09-02T20:00:20.053Z,5.03
2018-09-02T20:02:48.828Z,4.73
2018-09-02T20:05:17.827Z,4.80
2018-09-02T20:07:47.228Z,4.57
2018-09-02T20:10:17.668Z,5.60
2018-09-02T20:12:46.592Z,4.80
2018-09-02T20:15:15.663Z,4.60
2018-09-02T20:17:44.607Z,5.07
2018-09-02T20:20:14.608Z,4.80
2018-09-02T20:22:43.491Z,5.27
2018-09-02T20:25:12.339Z,5.17
2018-09-02T20:27:41.123Z,5.13
2018-09-02T20:30:10.887Z,4.43
2018-09-02T20:32:39.695Z,5.40
2018-09-02T20:35:09.320Z,5.13
2018-09-02T20:37:38.637Z,6.03
2018-09-02T20:40:07.996Z,5.00
2018-09-02T20:42:37.334Z,5.47
2018-09-02T20:45:06.657Z,5.17
2018-09-02T20:47:36.615Z,5.40
2018-09-02T20:50:06.548Z,4.93
2018-09-02T20:52:35.812Z,5.67
2018-09-02T20:55:05.404Z,5.40
2018-09-02T20:57:35.255Z,5.00
2018-09-02T21:00:05.879Z,4.87
2018-09-02T21:02:35.279Z,5.90
2018-09-02T21:05:04.869Z,5.60
2018-09-02T21:07:34.618Z,5.03
2018-09-02T21:10:04.211Z,5.33
2018-09-02T21:12:33.041Z,4.57
2018-09-02T21:15:02.402Z,6.37
2018-09-02T21:17:31.197Z,5.10
2018-09-02T21:20:00.057Z,5.00
2018-09-02T21:22:28.953Z,4.90
2018-09-02T21:24:57.739Z,5.40
2018-09-02T21:27:27.317Z,5.20
2018-09-02T21:29:57.279Z,5.07
2018-09-02T21:32:26.076Z,5.30
2018-09-02T21:34:55.578Z,5.10
2018-09-02T21:37:24.372Z,5.37
2018-09-02T21:39:53.600Z,5.07
2018-09-02T21:42:22.448Z,5.10
2018-09-02T21:44:51.315Z,4.77
2018-09-02T21:47:20.661Z,5.60
2018-09-02T21:49:50.072Z,5.23
2018-09-02T21:52:18.852Z,5.43
2018-09-02T21:54:48.311Z,5.27
2018-09-02T21:57:17.755Z,5.67
2018-09-02T21:59:46.835Z,4.83
2018-09-02T22:02:15.737Z,7.27
2018-09-02T22:04:45.075Z,5.27
2018-09-02T22:07:14.696Z,5.03
2018-09-02T22:09:44.228Z,5.27
2018-09-02T22:12:13.035Z,6.30
2018-09-02T22:14:41.864Z,5.20
2018-09-02T22:17:10.732Z,5.57
2018-09-02T22:19:39.609Z,5.47
2018-09-02T22:22:08.915Z,6.03
2018-09-02T22:24:37.786Z,5.50
2018-09-02T22:27:08.012Z,6.17
2018-09-02T22:29:37.547Z,5.40
2018-09-02T22:32:07.973Z,6.33
2018-09-02T22:34:37.528Z,5.90
2018-09-02T22:37:07.006Z,6.73
2018-09-02T22:39:37.034Z,5.33
2018-09-02T22:42:06.804Z,6.80
2018-09-02T22:44:36.028Z,6.03
2018-09-02T22:47:06.007Z,6.27
2018-09-02T22:49:35.930Z,5.57
2018-09-02T22:52:05.436Z,7.20
2018-09-02T22:54:34.761Z,6.27
2018-09-02T22:57:04.565Z,6.57
2018-09-02T22:59:35.094Z,6.37
2018-09-02T23:02:04.286Z,6.90
2018-09-02T23:04:33.089Z,6.13
2018-09-02T23:07:02.345Z,6.83
2018-09-02T23:09:32.041Z,6.13
2018-09-02T23:12:01.329Z,7.17
2018-09-02T23:15:01.020Z,6.70
2018-09-02T23:17:29.804Z,6.33
2018-09-02T23:19:59.640Z,8.00
2018-09-02T23:22:28.496Z,6.00
2018-09-02T23:24:57.973Z,6.70
2018-09-02T23:27:26.793Z,6.23
2018-09-02T23:29:56.563Z,6.67
2018-09-02T23:32:25.313Z,6.80
2018-09-02T23:34:55.526Z,6.10
2018-09-02T23:37:24.283Z,6.03
2018-09-02T23:39:53.912Z,6.50
2018-09-02T23:42:22.819Z,7.30
2018-09-02T23:44:51.672Z,6.13
2018-09-02T23:47:21.573Z,7.47
2018-09-02T23:49:50.926Z,6.33
2018-09-02T23:52:19.728Z,7.20
2018-09-02T23:54:49.223Z,5.50
2018-09-02T23:57:18.640Z,5.83
2018-09-02T23:59:47.620Z,6.60
